Stunt Ranch Reserve, Santa Monica Mtns, California Weather observations

Data are for 10 minute period ending at time listed.
 Day   Time   Solar   Ave.   Ave.  Ave.  Vector  Max.   Baro.   Total    
  of    of     Rad.   Air    Rel.  Wind   Wind   Wind  Press.  Precip.   
Year   Day            Temp.  Hum.  Speed  Dir.   Gust                    
2014   (PST)  Kw/m2    F      %     mph   deg.    mph    mb.     in.     
-------------------------------------------------------------------------
 293    4:10   0.00   55.1    95    1.0    85     2.6   966.1    0.00 
 293    4:20   0.00   54.9    95    0.9   168     2.0   966.1    0.00 
 293    4:30   0.00   55.1    95    1.4   118     2.3   966.1    0.00 
 293    4:40   0.00   55.3    95    1.0   131     1.7   966.1    0.00 
 293    4:50   0.00   55.1    95    0.8   283     2.0   966.5    0.00 
 293    5:00   0.00   55.1    95    0.6   146     1.9   966.5    0.00 
 293    5:10   0.00   54.8    95    0.9   273     2.6   966.5    0.00 
 293    5:20   0.00   54.5    95    0.8   283     2.3   966.5    0.00 
 293    5:30   0.00   54.2    96    0.8   282     2.8   966.5    0.00 
 293    5:40   0.00   53.9    96    2.3   123     3.6   966.5    0.00 
 293    5:50   0.00   53.7    97    0.7   140     2.6   966.5    0.00 
 293    6:00   0.00   53.4    97    0.9   274     2.1   966.5    0.00 
 293    6:10   0.00   53.4    97    1.7   287     2.8   966.5    0.00 
 293    6:20   0.01   54.1    98    0.3   302     1.5   966.5    0.00 
 293    6:30   0.01   54.2    97    1.2   220     2.6   966.5    0.00 
 293    6:40   0.02   54.3    98    0.9   113     1.9   966.5    0.00 
 293    6:50   0.03   54.5    97    1.3   289     2.3   966.8    0.00 
 293    7:00   0.03   54.2    97    1.5   278     2.8   967.2    0.00 
 293    7:10   0.05   54.5    98    1.8   280     2.5   967.2    0.00 
 293    7:20   0.10   55.5    97    0.7    45     1.3   967.2    0.00 
 293    7:30   0.13   55.4    97    0.4   109     1.1   967.5    0.00 
 293    7:40   0.17   57.0    97    0.8   302     2.0   967.5    0.00 
 293    7:50   0.20   57.7    96    0.4   317     1.5   967.8    0.00 
 293    8:00   0.30   58.5    94    0.7    40     2.0   967.8    0.00 
 293    8:10   0.33   59.7    90    0.8     6     2.4   967.8    0.00 
 293    8:20   0.36   61.0    87    1.7     3     4.1   967.8    0.00 
 293    8:30   0.39   63.5    82    1.2   292     3.7   968.2    0.00 
 293    8:40   0.43   65.0    78    2.5   299     7.0   967.8    0.00 
 293    8:50   0.46   65.7    78    2.5   352     5.0   967.8    0.00 
 293    9:00   0.47   66.2    76    2.3     8     5.7   967.8    0.00 
 293    9:10   0.45   66.1    77    1.9   314     4.4   967.8    0.00 
 293    9:20   0.50   67.7    72    1.8   299     4.1   967.8    0.00 
 293    9:30   0.55   69.3    68    1.3   291     4.2   967.8    0.00 
 293    9:40   0.58   70.1    67    1.3   319     4.3   967.8    0.00 
 293    9:50   0.60   71.1    65    2.1   282     4.7   967.8    0.00 
 293   10:00   0.61   71.6    64    2.5   272     5.2   967.8    0.00 
 293   10:10   0.63   72.3    62    2.6   275     5.6   967.8    0.00 
 293   10:20   0.65   73.1    61    4.0   279     7.4   967.8    0.00 
 293   10:30   0.66   74.1    60    3.5   283     6.5   967.5    0.00 
 293   10:40   0.67   74.3    60    4.2   278     7.1   967.5    0.00 
 293   10:50   0.69   74.2    60    3.3   287     6.4   967.5    0.00 
 293   11:00   0.69   74.7    59    3.4   287     7.5   967.2    0.00 
 293   11:10   0.70   75.8    57    4.0   283     8.7   967.2    0.00 
 293   11:20   0.70   77.0    55    3.7   285     8.3   967.2    0.00 
 293   11:30   0.71   76.4    55    2.9   283     6.4   966.8    0.00 
 293   11:40   0.72   77.6    54    4.1   276     8.0   966.8    0.00 
 293   11:50   0.69   77.9    53    4.1   272     7.9   966.5    0.00 
 293   12:00   0.71   79.6    51    3.7   283     9.5   966.5    0.00 
 293   12:10   0.71   80.0    50    3.4   284     8.0   966.5    0.00 
 293   12:20   0.70   79.9    50    4.0   286     9.4   966.5    0.00 
 293   12:30   0.68   80.0    50    2.9   282     8.0   966.1    0.00 
 293   12:40   0.68   80.5    49    3.5   286     8.4   966.1    0.00 
 293   12:50   0.64   81.2    48    2.9   292     8.8   966.1    0.00 
 293   13:00   0.66   81.4    48    2.8   287     7.5   966.1    0.00 
 293   13:10   0.64   81.0    48    3.2   283     8.9   966.1    0.00 
 293   13:20   0.63   81.5    44    2.7   300     6.6   966.1    0.00 
 293   13:30   0.61   80.7    45    2.6   303     5.8   966.1    0.00 
 293   13:40   0.60   81.0    45    3.1   288     7.4   966.1    0.00 
 293   13:50   0.57   80.7    47    2.8   290     6.9   966.1    0.00 
 293   14:00   0.56   79.9    48    3.0   297     7.7   965.8    0.00 
 293   14:10   0.53   79.7    49    3.1   298     8.3   965.8    0.00 
 293   14:20   0.51   80.3    48    2.5   298     6.9   965.8    0.00 
 293   14:30   0.48   79.9    49    2.7   292     6.9   965.8    0.00 
 293   14:40   0.47   79.5    48    3.1   285     5.9   965.8    0.00 
 293   14:50   0.37   79.8    48    2.3   283     6.1   965.8    0.00 
 293   15:00   0.40   79.4    49    2.6   294     6.2   965.8    0.00 
 293   15:10   0.37   79.6    49    2.7   285     7.1   965.8    0.00 
 293   15:20   0.32   79.2    50    2.5   290     6.4   965.8    0.00 
 293   15:30   0.29   78.7    51    2.2   288     6.9   965.5    0.00 
 293   15:40   0.28   78.3    52    2.2   281     6.9   965.5    0.00 
 293   15:50   0.23   78.1    52    1.1   297     4.7   965.5    0.00 
 293   16:00   0.20   77.3    54    2.1   286     6.1   965.1    0.00 
 293   16:10   0.17   76.0    56    1.4   292     5.3   965.1    0.00 
 293   16:20   0.13   75.6    56    1.6   295     4.3   965.1    0.00 
 293   16:30   0.09   73.5    60    1.8   288     5.6   965.1    0.00 
 293   16:40   0.05   71.6    64    2.0   281     4.7   964.8    0.00 
 293   16:50   0.03   70.4    65    2.0   279     5.4   964.8    0.00 
 293   17:00   0.01   68.8    67    2.0   276     4.3   964.8    0.00 
 293   17:10   0.01   68.0    68    2.0   268     6.1   965.1    0.00 
 293   17:20   0.01   66.9    70    1.3   262     3.1   965.1    0.00 
 293   17:30   0.00   66.4    72    0.9   247     2.3   965.5    0.00 
 293   17:40   0.00   65.8    72    1.1   251     2.6   965.8    0.00 
 293   17:50   0.00   64.6    74    1.2   232     2.3   965.8    0.00 
 293   18:00   0.00   64.0    75    1.6   256     3.8   965.8    0.00 
 293   18:10   0.00   63.3    76    1.8   239     4.5   966.1    0.00 
 293   18:20   0.00   62.9    77    2.1   245     4.5   966.1    0.00 
 293   18:30   0.00   62.4    78    2.6   249     4.8   966.5    0.00 
 293   18:40   0.00   62.5    77    2.4   202     4.5   966.5    0.00 
 293   18:50   0.00   62.1    78    2.5   195     4.4   966.1    0.00 
 293   19:00   0.00   62.1    79    0.3   166     1.8   966.1    0.00 
 293   19:10   0.00   61.8    79    1.5   264     2.7   966.1    0.00 
 293   19:20   0.00   61.5    79    2.2   237     3.7   966.5    0.00 
 293   19:30   0.00   61.3    79    2.6   202     3.7   966.5    0.00 
 293   19:40   0.00   60.9    78    2.4   200     3.9   966.5    0.00 
 293   19:50   0.00   61.2    77    1.3   233     3.1   966.5    0.00 
 293   20:00   0.00   61.4    74    2.9   212     4.8   966.5    0.00 
 293   20:10   0.00   61.1    76    3.6   199     4.9   966.5    0.00 
 293   20:20   0.00   61.3    78    3.5   176     5.9   966.5    0.00 
 293   20:30   0.00   61.4    78    3.5   162     5.0   966.5    0.00 
 293   20:40   0.00   61.9    75    1.4   187     3.9   966.5    0.00 
 293   20:50   0.00   61.9    76    1.6   282     4.3   966.8    0.00 
 293   21:00   0.00   60.3    75    1.2   222     3.8   966.8    0.00 
 293   21:10   0.00   60.8    72    2.2   187     3.5   966.8    0.00 
 293   21:20   0.00   61.0    71    2.0   175     3.7   966.8    0.00 
 293   21:30   0.00   61.0    71    1.3   245     2.7   966.8    0.00 
 293   21:40   0.00   60.9    72    0.6   196     1.7   966.8    0.00 
 293   21:50   0.00   60.7    74    2.3   275     3.2   966.8    0.00 
 293   22:00   0.00   59.6    75    1.7   162     2.9   966.8    0.00 
 293   22:10   0.00   59.7    75    2.3   164     3.9   966.8    0.00 
 293   22:20   0.00   60.2    73    3.1   148     4.8   966.5    0.00 
 293   22:30   0.00   60.5    72    1.6   180     2.6   966.5    0.00 
 293   22:40   0.00   60.2    73    0.8   284     1.9   966.5    0.00 
 293   22:50   0.00   60.0    70    1.5   271     3.4   966.8    0.00 
 293   23:00   0.00   58.9    71    1.3   131     4.3   966.8    0.00 
 293   23:10   0.00   58.5    72    3.0   142     5.0   966.8    0.00 
 293   23:20   0.00   59.8    72    2.9   168     4.7   966.5    0.00 
 293   23:30   0.00   60.1    72    2.4   220     5.0   966.5    0.00 
 293   23:40   0.00   58.8    74    2.8   257     7.2   966.8    0.00 
 293   23:50   0.00   57.4    75    2.9   133     3.9   966.8    0.00 
 294    0:00   0.00   57.9    75    0.7   136     3.3   966.5    0.00 
 294    0:10   0.00   59.3    72    1.4   225     3.1   966.5    0.00 
 294    0:20   0.00   58.5    75    2.2   299     3.7   966.5    0.00 
 294    0:30   0.00   57.7    78    2.5   136     3.4   966.5    0.00 
 294    0:40   0.00   59.4    75    3.0   123     4.5   966.5    0.00 
 294    0:50   0.00   60.8    74    0.3    25     2.8   966.5    0.00 
 294    1:00   0.00   61.0    77    1.0   323     3.1   966.5    0.00 
 294    1:10   0.00   60.3    79    1.9   312     5.3   966.5    0.00 
 294    1:20   0.00   59.2    79    1.3   356     3.8   966.5    0.00 
 294    1:30   0.00   56.0    85    3.6   123     5.0   966.5    0.00 
 294    1:40   0.00   56.9    86    1.1    90     4.0   966.5    0.00 
 294    1:50   0.00   57.5    85    0.9    50     2.2   966.1    0.00 
 294    2:00   0.00   56.3    86    1.7   273     4.5   966.5    0.00 
 294    2:10   0.00   55.5    88    2.7   145     4.9   966.5    0.00 
 294    2:20   0.00   56.0    88    3.1   132     5.1   966.5    0.00 
 294    2:30   0.00   57.9    85    4.2   145     7.1   966.1    0.00 
 294    2:40   0.00   59.6    79    0.8    81     2.9   966.1    0.00 
 294    2:50   0.00   58.4    81    1.0   277     2.8   966.1    0.00 
 294    3:00   0.00   56.6    85    1.5   155     2.3   966.1    0.00 
 294    3:10   0.00   55.8    87    1.4   176     2.3   966.1    0.00 
 294    3:20   0.00   56.0    85    1.9   145     3.7   966.1    0.00 
 294    3:30   0.00   56.4    84    0.6   194     3.4   966.1    0.00 
 294    3:40   0.00   57.1    83    1.5   260     3.5   966.5    0.00 
 294    3:50   0.00   57.5    82    0.3   340     1.2   966.5    0.00 
 294    4:00   0.00   57.6    82    0.6   188     3.0   966.1    0.00 

Return to Stunt Ranch Reserve graphs page.


Western Regional Climate Center,wrcc@dri.edu